createdAt,value
2022-10-01T00:02:08.694Z,101324.52
2022-10-01T00:04:37.791Z,101320.52
2022-10-01T00:07:09.987Z,101314.05
2022-10-01T00:09:38.411Z,101315.45
2022-10-01T00:12:07.094Z,101317.55
2022-10-01T00:14:38.653Z,101318.60
2022-10-01T00:17:06.648Z,101313.00
2022-10-01T00:19:34.577Z,101314.75
2022-10-01T00:22:02.651Z,101314.92
2022-10-01T00:24:30.723Z,101313.18
2022-10-01T00:26:58.601Z,101311.43
2022-10-01T00:29:26.590Z,101309.35
2022-10-01T00:31:54.690Z,101306.20
2022-10-01T00:34:22.643Z,101303.59
2022-10-01T00:36:50.976Z,101300.98
2022-10-01T00:39:19.524Z,101295.21
2022-10-01T00:41:48.243Z,101290.67
2022-10-01T00:44:37.157Z,101284.74
2022-10-01T00:47:18.174Z,101292.25
2022-10-01T00:49:47.780Z,101294.69
2022-10-01T00:52:24.865Z,101291.02
2022-10-01T00:55:03.199Z,101288.58
2022-10-01T00:57:31.836Z,101285.79
2022-10-01T01:00:03.996Z,101279.85
2022-10-01T01:02:32.125Z,101283.69
2022-10-01T01:05:00.941Z,101282.44
2022-10-01T01:07:31.925Z,101276.15
2022-10-01T01:10:02.464Z,101271.97
2022-10-01T01:13:16.599Z,101271.27
2022-10-01T01:15:50.662Z,101272.49
2022-10-01T01:18:33.864Z,101272.49
2022-10-01T01:21:21.881Z,101272.66
2022-10-01T01:24:08.276Z,101276.50
2022-10-01T01:26:48.250Z,101275.80
2022-10-01T01:29:41.169Z,101272.48
2022-10-01T01:32:15.169Z,101268.99
2022-10-01T01:34:47.049Z,101267.08
2022-10-01T01:37:19.787Z,101268.64
2022-10-01T01:39:52.863Z,101271.95
2022-10-01T01:42:37.372Z,101269.14
2022-10-01T01:45:10.728Z,101272.43
2022-10-01T01:47:42.318Z,101272.95
2022-10-01T01:50:13.974Z,101271.55
2022-10-01T01:52:42.042Z,101276.78
2022-10-01T01:55:10.389Z,101280.61
2022-10-01T01:57:41.973Z,101281.48
2022-10-01T02:00:11.964Z,101280.60
2022-10-01T02:02:44.310Z,101281.65
2022-10-01T02:05:17.144Z,101279.73
2022-10-01T02:08:09.587Z,101277.82
2022-10-01T02:11:05.404Z,101276.42
2022-10-01T02:13:42.131Z,101276.08
2022-10-01T02:16:48.844Z,101279.39
2022-10-01T02:19:19.792Z,101274.67
2022-10-01T02:21:58.891Z,101274.16
2022-10-01T02:24:33.811Z,101274.52
2022-10-01T02:27:07.556Z,101274.69
2022-10-01T02:29:37.813Z,101278.17
2022-10-01T02:32:07.110Z,101276.44
2022-10-01T02:34:35.250Z,101274.69
2022-10-01T02:37:06.315Z,101272.95
2022-10-01T02:39:36.693Z,101274.52
2022-10-01T02:42:07.960Z,101274.69
2022-10-01T02:44:40.742Z,101278.52
2022-10-01T02:47:20.867Z,101272.25
2022-10-01T02:49:49.988Z,101269.64
2022-10-01T02:52:29.920Z,101266.67
2022-10-01T02:55:31.993Z,101267.55
2022-10-01T02:57:59.975Z,101267.02
2022-10-01T03:00:28.870Z,101262.49
2022-10-01T03:02:56.987Z,101262.84
2022-10-01T03:05:24.943Z,101263.53
2022-10-01T03:07:52.893Z,101257.95
2022-10-01T03:10:21.353Z,101255.16
2022-10-01T03:12:51.324Z,101254.64
2022-10-01T03:15:19.740Z,101256.02
2022-10-01T03:17:54.134Z,101255.34
2022-10-01T03:20:22.589Z,101253.59
2022-10-01T03:22:51.192Z,101248.54
2022-10-01T03:25:19.229Z,101244.87
2022-10-01T03:27:47.415Z,101244.88
2022-10-01T03:30:15.540Z,101241.02
2022-10-01T03:32:43.512Z,101237.18
2022-10-01T03:35:11.655Z,101237.00
2022-10-01T03:37:39.751Z,101235.24
2022-10-01T03:40:08.523Z,101232.27
2022-10-01T03:42:36.508Z,101232.09
2022-10-01T03:45:04.754Z,101235.56
2022-10-01T03:47:32.750Z,101236.08
2022-10-01T03:50:00.719Z,101234.33
2022-10-01T03:52:28.686Z,101231.55
2022-10-01T03:54:56.653Z,101237.63
2022-10-01T03:57:24.621Z,101228.73
2022-10-01T03:59:52.797Z,101224.36
2022-10-01T04:02:22.167Z,101223.14
2022-10-01T04:04:51.296Z,101220.50
2022-10-01T04:07:19.258Z,101219.09
2022-10-01T04:09:47.126Z,101213.15
2022-10-01T04:12:15.114Z,101213.48
2022-10-01T04:14:43.065Z,101209.27
2022-10-01T04:17:11.136Z,101208.73
2022-10-01T04:19:39.264Z,101209.95
2022-10-01T04:22:07.278Z,101205.94
2022-10-01T04:24:35.184Z,101200.52
2022-10-01T04:27:03.217Z,101202.61
2022-10-01T04:29:31.183Z,101200.50
2022-10-01T04:31:59.187Z,101195.61
2022-10-01T04:34:47.190Z,101191.77
2022-10-01T04:37:15.187Z,101187.05
2022-10-01T04:39:43.139Z,101185.48
2022-10-01T04:42:13.549Z,101185.46
2022-10-01T04:44:42.015Z,101183.71
2022-10-01T04:47:10.081Z,101176.04
2022-10-01T04:49:38.170Z,101175.67
2022-10-01T04:52:06.242Z,101178.45
2022-10-01T04:54:34.209Z,101180.71
2022-10-01T04:57:02.280Z,101182.61
2022-10-01T04:59:30.460Z,101187.30
2022-10-01T05:01:58.458Z,101190.95
2022-10-01T05:04:27.615Z,101200.35
2022-10-01T05:06:56.426Z,101202.27
2022-10-01T05:09:24.575Z,101209.75
2022-10-01T05:11:52.851Z,101208.70
2022-10-01T05:14:22.555Z,101210.48
2022-10-01T05:16:50.800Z,101209.31
2022-10-01T05:19:18.804Z,101208.49
2022-10-01T05:21:46.942Z,101208.85
2022-10-01T05:24:16.480Z,101210.59
2022-10-01T05:26:44.451Z,101211.46
2022-10-01T05:29:15.369Z,101211.65
2022-10-01T05:31:44.521Z,101211.15
2022-10-01T05:34:12.761Z,101212.54
2022-10-01T05:36:40.727Z,101214.64
2022-10-01T05:39:08.899Z,101218.14
2022-10-01T05:41:37.028Z,101217.28
2022-10-01T05:44:06.377Z,101219.22
2022-10-01T05:46:34.341Z,101215.94
2022-10-01T05:49:02.256Z,101212.83
2022-10-01T05:51:30.469Z,101210.23
2022-10-01T05:54:02.214Z,101204.50
2022-10-01T05:56:31.174Z,101205.73
2022-10-01T05:58:59.815Z,101209.23
2022-10-01T06:01:28.831Z,101210.98
2022-10-01T06:03:56.979Z,101207.00
2022-10-01T06:06:26.815Z,101210.15
2022-10-01T06:08:55.174Z,101208.42
2022-10-01T06:11:24.463Z,101213.14
2022-10-01T06:13:52.852Z,101213.67
2022-10-01T06:16:21.166Z,101216.81
2022-10-01T06:18:49.779Z,101209.14
2022-10-01T06:21:17.872Z,101211.75
2022-10-01T06:23:47.079Z,101205.65
2022-10-01T06:26:15.142Z,101199.20
2022-10-01T06:28:43.149Z,101199.21
2022-10-01T06:31:11.909Z,101199.21
2022-10-01T06:33:39.896Z,101195.90
2022-10-01T06:36:07.937Z,101192.27
2022-10-01T06:38:35.910Z,101193.33
2022-10-01T06:41:05.107Z,101190.72
2022-10-01T06:43:33.961Z,101187.77
2022-10-01T06:46:03.262Z,101192.29
2022-10-01T06:48:32.556Z,101189.31
2022-10-01T06:51:00.563Z,101185.13
2022-10-01T06:53:29.171Z,101178.66
2022-10-01T06:55:57.435Z,101175.52
2022-10-01T06:58:28.281Z,101170.09
2022-10-01T07:01:02.206Z,101173.39
2022-10-01T07:03:31.444Z,101173.39
2022-10-01T07:06:04.156Z,101173.39
2022-10-01T07:08:33.565Z,101171.27
2022-10-01T07:11:05.245Z,101164.27
2022-10-01T07:13:33.363Z,101167.58
2022-10-01T07:16:04.243Z,101168.80
2022-10-01T07:18:32.263Z,101164.09
2022-10-01T07:21:00.244Z,101157.08
2022-10-01T07:23:28.213Z,101155.66
2022-10-01T07:25:56.173Z,101148.48
2022-10-01T07:28:26.205Z,101152.80
2022-10-01T07:31:11.330Z,101145.44
2022-10-01T07:33:39.766Z,101137.55
2022-10-01T07:36:11.027Z,101136.11
2022-10-01T07:38:39.056Z,101137.47
2022-10-01T07:41:07.027Z,101133.41
2022-10-01T07:43:36.302Z,101127.95
2022-10-01T07:46:07.311Z,101120.23
2022-10-01T07:48:35.881Z,101118.78
2022-10-01T07:51:04.013Z,101116.30
2022-10-01T07:53:32.204Z,101115.20
2022-10-01T07:56:03.738Z,101114.64
2022-10-01T07:58:31.649Z,101115.27
2022-10-01T08:01:03.769Z,101111.02
2022-10-01T08:03:31.723Z,101105.02
2022-10-01T08:05:59.820Z,101104.26
2022-10-01T08:08:27.853Z,101097.02
2022-10-01T08:10:55.952Z,101099.03
2022-10-01T08:13:25.351Z,101097.05
2022-10-01T08:15:54.989Z,101095.21
2022-10-01T08:18:23.748Z,101093.08
2022-10-01T08:20:52.662Z,101093.20
2022-10-01T08:23:21.692Z,101088.40
2022-10-01T08:25:49.562Z,101088.50
2022-10-01T08:28:17.843Z,101085.11
2022-10-01T08:30:45.785Z,101079.61
2022-10-01T08:33:14.629Z,101074.98
2022-10-01T08:35:43.902Z,101075.25
2022-10-01T08:38:13.104Z,101075.88
2022-10-01T08:40:50.632Z,101070.59
2022-10-01T08:43:28.716Z,101065.82
2022-10-01T08:46:01.288Z,101063.30
2022-10-01T08:48:57.112Z,101061.83
2022-10-01T08:52:27.348Z,101053.68
2022-10-01T08:54:55.185Z,101044.27
2022-10-01T08:57:28.098Z,101042.57
2022-10-01T08:59:59.609Z,101041.25
2022-10-01T09:02:41.894Z,101037.98
2022-10-01T09:05:43.168Z,101034.88
2022-10-01T09:08:22.944Z,101024.77
2022-10-01T09:11:02.560Z,101018.38
2022-10-01T09:13:36.313Z,101017.41
2022-10-01T09:16:15.337Z,101014.86
2022-10-01T09:19:00.679Z,101017.20
2022-10-01T09:21:47.606Z,101011.40
2022-10-01T09:24:29.804Z,101008.92
2022-10-01T09:26:57.871Z,101007.67
2022-10-01T09:29:39.307Z,101004.11
2022-10-01T09:32:07.687Z,101002.63
2022-10-01T09:34:40.215Z,100999.38
2022-10-01T09:37:21.785Z,100995.85
2022-10-01T09:40:05.369Z,100986.17
2022-10-01T09:42:33.634Z,100984.17
2022-10-01T09:45:01.992Z,100978.98
2022-10-01T09:47:33.544Z,100977.13
2022-10-01T09:50:05.937Z,100973.02
2022-10-01T09:52:38.074Z,100970.82
2022-10-01T09:55:18.128Z,100971.29
2022-10-01T09:58:14.030Z,100972.51
2022-10-01T10:00:42.705Z,100965.33
2022-10-01T10:03:22.206Z,100964.11
2022-10-01T10:05:51.031Z,100958.22
2022-10-01T10:08:33.626Z,100950.70
2022-10-01T10:11:26.892Z,100945.56
2022-10-01T10:13:59.750Z,100942.30
2022-10-01T10:16:31.375Z,100936.58
2022-10-01T10:19:15.725Z,100929.32
2022-10-01T10:21:54.684Z,100923.02
2022-10-01T10:24:33.992Z,100918.14
2022-10-01T10:27:06.458Z,100916.55
2022-10-01T10:29:37.758Z,100911.30
2022-10-01T10:32:26.890Z,100907.67
2022-10-01T10:35:02.616Z,100905.42
2022-10-01T10:37:37.594Z,100900.58
2022-10-01T10:40:08.375Z,100891.95
2022-10-01T10:42:38.975Z,100886.13
2022-10-01T10:45:17.609Z,100883.45
2022-10-01T10:47:49.280Z,100881.60
2022-10-01T10:50:37.735Z,100878.64
2022-10-01T10:53:23.092Z,100871.96
2022-10-01T10:56:03.105Z,100869.21
2022-10-01T10:58:33.823Z,100867.02
2022-10-01T11:01:18.204Z,100864.81
2022-10-01T11:03:53.385Z,100865.81
2022-10-01T11:06:22.089Z,100864.55
2022-10-01T11:08:59.678Z,100865.45
2022-10-01T11:11:39.714Z,100857.58
2022-10-01T11:14:29.711Z,100855.21
2022-10-01T11:17:06.580Z,100848.58
2022-10-01T11:20:03.327Z,100848.13
2022-10-01T11:22:40.602Z,100838.05
2022-10-01T11:25:52.878Z,100839.60
2022-10-01T11:28:33.448Z,100835.52
2022-10-01T11:31:29.954Z,100831.17
2022-10-01T11:34:39.554Z,100825.93
2022-10-01T11:37:49.917Z,100819.24
2022-10-01T11:40:24.983Z,100816.38
2022-10-01T11:43:00.272Z,100812.38
2022-10-01T11:45:36.012Z,100812.57
2022-10-01T11:48:25.838Z,100810.98
2022-10-01T11:50:59.171Z,100807.02
2022-10-01T11:53:33.966Z,100802.28
2022-10-01T11:56:26.380Z,100796.30
2022-10-01T11:59:21.796Z,100797.73
2022-10-01T12:02:05.705Z,100792.30
2022-10-01T12:04:40.633Z,100783.74
2022-10-01T12:07:29.119Z,100783.58
2022-10-01T12:10:07.222Z,100777.23
2022-10-01T12:12:49.922Z,100771.23
2022-10-01T12:15:24.217Z,100764.30
2022-10-01T12:18:03.642Z,100768.39
2022-10-01T12:20:40.880Z,100769.16
2022-10-01T12:23:19.901Z,100767.28
2022-10-01T12:25:56.986Z,100767.45
2022-10-01T12:28:45.810Z,100767.48
2022-10-01T12:31:29.627Z,100765.52
2022-10-01T12:34:12.907Z,100763.17
2022-10-01T12:36:47.734Z,100762.49
2022-10-01T12:39:43.061Z,100762.72
2022-10-01T12:42:32.517Z,100762.98
2022-10-01T12:45:23.268Z,100758.63
2022-10-01T12:48:00.608Z,100757.05
2022-10-01T12:50:40.760Z,100748.32
2022-10-01T12:53:23.853Z,100742.90
2022-10-01T12:55:57.929Z,100743.92
2022-10-01T12:58:38.047Z,100741.46
2022-10-01T13:01:14.939Z,100734.75
2022-10-01T13:03:54.876Z,100730.50
2022-10-01T13:06:31.950Z,100726.61
2022-10-01T13:09:10.450Z,100726.56
2022-10-01T13:11:59.038Z,100725.14
2022-10-01T13:14:28.434Z,100726.36
2022-10-01T13:16:59.262Z,100725.46
2022-10-01T13:19:42.649Z,100721.76
2022-10-01T13:22:24.382Z,100714.73
2022-10-01T13:25:22.845Z,100712.64
2022-10-01T13:28:01.874Z,100705.31
2022-10-01T13:30:45.321Z,100702.32
2022-10-01T13:33:32.442Z,100691.23
2022-10-01T13:36:03.387Z,100687.55
2022-10-01T13:38:44.478Z,100683.05
2022-10-01T13:41:23.201Z,100684.09
2022-10-01T13:43:58.325Z,100681.17
2022-10-01T13:46:31.359Z,100681.77
2022-10-01T13:49:07.233Z,100678.54
2022-10-01T13:51:37.499Z,100677.80
2022-10-01T13:54:18.754Z,100670.70
2022-10-01T13:56:46.921Z,100671.70
2022-10-01T13:59:27.176Z,100671.33
2022-10-01T14:01:55.284Z,100666.24
2022-10-01T14:04:45.949Z,100664.79
2022-10-01T14:07:22.808Z,100662.77
2022-10-01T14:09:54.990Z,100659.89
2022-10-01T14:12:53.481Z,100658.20
2022-10-01T14:15:39.765Z,100652.11
2022-10-01T14:18:14.914Z,100648.51
2022-10-01T14:21:18.152Z,100643.67
2022-10-01T14:24:23.446Z,100638.27
2022-10-01T14:26:56.329Z,100638.14
2022-10-01T14:29:43.240Z,100635.21
2022-10-01T14:32:31.411Z,100631.96
2022-10-01T14:35:33.781Z,100627.48
2022-10-01T14:38:05.348Z,100625.96
2022-10-01T14:40:42.080Z,100627.25
2022-10-01T14:43:30.960Z,100629.25
2022-10-01T14:46:00.608Z,100625.79
2022-10-01T14:48:34.307Z,100621.24
2022-10-01T14:51:07.601Z,100617.61
2022-10-01T14:53:37.667Z,100615.10
2022-10-01T14:56:14.365Z,100613.80
2022-10-01T14:58:52.036Z,100608.98
2022-10-01T15:01:22.193Z,100608.21
2022-10-01T15:03:51.865Z,100606.76
2022-10-01T15:06:27.812Z,100603.05
2022-10-01T15:09:08.304Z,100599.68
2022-10-01T15:11:38.123Z,100597.30
2022-10-01T15:14:16.868Z,100603.69
2022-10-01T15:16:44.946Z,100599.06
2022-10-01T15:19:16.909Z,100596.23
2022-10-01T15:21:47.986Z,100593.84
2022-10-01T15:24:42.693Z,100592.14
2022-10-01T15:27:14.130Z,100586.83
2022-10-01T15:29:43.485Z,100587.48
2022-10-01T15:32:18.197Z,100588.98
2022-10-01T15:34:56.365Z,100586.09
2022-10-01T15:37:33.935Z,100588.98
2022-10-01T15:40:04.237Z,100586.42
2022-10-01T15:42:34.639Z,100581.59
2022-10-01T15:45:08.439Z,100576.80
2022-10-01T15:47:37.791Z,100574.45
2022-10-01T15:50:05.868Z,100571.77
2022-10-01T15:52:52.689Z,100571.85
2022-10-01T15:55:47.808Z,100570.57
2022-10-01T15:58:15.798Z,100571.54
2022-10-01T16:00:47.916Z,100567.60
2022-10-01T16:03:31.355Z,100570.12
2022-10-01T16:06:02.176Z,100569.50
2022-10-01T16:08:37.688Z,100566.89
2022-10-01T16:11:15.662Z,100566.61
2022-10-01T16:13:46.866Z,100567.87
2022-10-01T16:16:15.320Z,100565.84
2022-10-01T16:18:43.736Z,100566.09
2022-10-01T16:21:11.917Z,100563.72
2022-10-01T16:23:49.543Z,100559.94
2022-10-01T16:26:36.497Z,100557.75
2022-10-01T16:29:06.527Z,100553.48
2022-10-01T16:31:36.221Z,100557.38
2022-10-01T16:34:11.822Z,100555.55
2022-10-01T16:36:40.070Z,100554.58
2022-10-01T16:39:08.671Z,100551.67
2022-10-01T16:41:36.926Z,100548.23
2022-10-01T16:44:07.976Z,100546.73
2022-10-01T16:46:36.879Z,100543.61
2022-10-01T16:49:15.541Z,100543.50
2022-10-01T16:51:43.551Z,100535.16
2022-10-01T16:54:22.882Z,100536.62
2022-10-01T16:56:52.361Z,100534.92
2022-10-01T16:59:23.424Z,100525.70
2022-10-01T17:01:54.915Z,100526.20
2022-10-01T17:04:23.837Z,100523.30
2022-10-01T17:06:53.048Z,100517.58
2022-10-01T17:09:21.133Z,100520.23
2022-10-01T17:11:49.980Z,100520.98
2022-10-01T17:14:20.061Z,100518.07
2022-10-01T17:16:50.816Z,100519.88
2022-10-01T17:19:19.360Z,100520.11
2022-10-01T17:21:47.343Z,100514.75
2022-10-01T17:24:15.393Z,100507.98
2022-10-01T17:26:45.530Z,100508.39
2022-10-01T17:29:13.888Z,100505.25
2022-10-01T17:31:44.972Z,100501.66
2022-10-01T17:34:13.368Z,100503.06
2022-10-01T17:36:41.358Z,100501.57
2022-10-01T17:39:09.306Z,100502.77
2022-10-01T17:41:37.317Z,100504.38
2022-10-01T17:44:05.246Z,100501.80
2022-10-01T17:46:33.491Z,100498.02
2022-10-01T17:49:01.733Z,100498.20
2022-10-01T17:51:29.990Z,100496.28
2022-10-01T17:53:58.387Z,100494.73
2022-10-01T17:56:26.454Z,100492.48
2022-10-01T17:58:55.157Z,100494.92
2022-10-01T18:01:23.179Z,100498.11
2022-10-01T18:04:00.403Z,100499.88
2022-10-01T18:06:29.774Z,100495.35
2022-10-01T18:08:57.936Z,100495.02
2022-10-01T18:11:28.506Z,100495.40
2022-10-01T18:13:56.675Z,100492.11
2022-10-01T18:16:25.772Z,100491.08
2022-10-01T18:21:48.145Z,100485.54
2022-10-01T18:24:16.672Z,100486.94
2022-10-01T18:26:45.893Z,100479.06
2022-10-01T18:29:22.881Z,100479.45
2022-10-01T18:31:54.494Z,100480.70
2022-10-01T18:34:29.318Z,100477.02
2022-10-01T18:37:07.303Z,100479.30
2022-10-01T18:39:40.245Z,100479.29
2022-10-01T18:42:39.320Z,100478.07
2022-10-01T18:45:17.911Z,100472.13
2022-10-01T18:48:09.487Z,100469.52
2022-10-01T18:50:46.978Z,100469.02
2022-10-01T18:54:12.144Z,100466.25
2022-10-01T18:56:52.180Z,100461.71
2022-10-01T18:59:55.470Z,100459.27
2022-10-01T19:02:53.520Z,100460.19
2022-10-01T19:05:42.769Z,100458.23
2022-10-01T19:08:16.799Z,100454.04
2022-10-01T19:10:50.256Z,100455.98
2022-10-01T19:13:49.200Z,100455.67
2022-10-01T19:16:38.863Z,100452.56
2022-10-01T19:19:59.100Z,100449.81
2022-10-01T19:22:38.083Z,100446.05
2022-10-01T19:25:26.213Z,100446.60
2022-10-01T19:28:09.254Z,100448.94
2022-10-01T19:30:58.396Z,100449.02
2022-10-01T19:33:26.561Z,100446.13
2022-10-01T19:35:59.153Z,100451.79
2022-10-01T19:38:37.112Z,100453.77
2022-10-01T19:41:14.995Z,100457.65
2022-10-01T19:44:00.115Z,100462.77
2022-10-01T19:46:37.443Z,100464.70
2022-10-01T19:49:20.941Z,100463.67
2022-10-01T19:52:00.171Z,100460.88
2022-10-01T19:54:33.679Z,100461.29
2022-10-01T19:57:23.865Z,100461.48
2022-10-01T19:59:56.504Z,100464.29
2022-10-01T20:02:46.022Z,100461.86
2022-10-01T20:05:21.107Z,100465.54
2022-10-01T20:08:25.361Z,100466.77
2022-10-01T20:10:59.576Z,100471.07
2022-10-01T20:13:39.534Z,100470.34
2022-10-01T20:16:26.357Z,100472.77
2022-10-01T20:19:00.163Z,100470.88
2022-10-01T20:21:32.927Z,100471.40
2022-10-01T20:24:33.218Z,100465.24
2022-10-01T20:27:36.547Z,100463.30
2022-10-01T20:30:06.743Z,100458.60
2022-10-01T20:33:24.191Z,100463.13
2022-10-01T20:35:54.872Z,100469.29
2022-10-01T20:38:27.912Z,100474.09
2022-10-01T20:40:58.642Z,100474.47
2022-10-01T20:43:34.452Z,100476.62
2022-10-01T20:46:13.621Z,100473.74
2022-10-01T20:48:50.015Z,100468.04
2022-10-01T20:51:29.540Z,100467.55
2022-10-01T20:54:08.256Z,100468.27
2022-10-01T20:57:05.706Z,100467.95
2022-10-01T20:59:39.161Z,100465.02
2022-10-01T21:02:19.208Z,100465.05
2022-10-01T21:05:13.136Z,100468.07
2022-10-01T21:07:56.973Z,100467.29
2022-10-01T21:10:46.249Z,100472.42
2022-10-01T21:13:35.017Z,100472.11
2022-10-01T21:16:32.930Z,100473.72
2022-10-01T21:19:14.243Z,100474.33
2022-10-01T21:21:44.786Z,100476.51
2022-10-01T21:24:31.077Z,100478.84
2022-10-01T21:27:30.174Z,100474.92
2022-10-01T21:30:08.178Z,100473.41
2022-10-01T21:33:03.651Z,100474.70
2022-10-01T21:35:40.769Z,100472.31
2022-10-01T21:38:11.569Z,100469.38
2022-10-01T21:40:54.625Z,100466.44
2022-10-01T21:43:46.318Z,100465.76
2022-10-01T21:46:45.497Z,100467.18
2022-10-01T21:49:20.073Z,100468.60
2022-10-01T21:52:11.182Z,100468.68
2022-10-01T21:54:51.134Z,100475.55
2022-10-01T21:57:28.090Z,100471.20
2022-10-01T22:00:18.867Z,100470.17
2022-10-01T22:02:52.834Z,100470.73
2022-10-01T22:05:29.615Z,100472.70
2022-10-01T22:08:16.765Z,100469.60
2022-10-01T22:10:48.580Z,100471.77
2022-10-01T22:13:22.376Z,100475.48
2022-10-01T22:15:54.414Z,100471.71
2022-10-01T22:18:46.176Z,100472.60
2022-10-01T22:21:37.186Z,100472.63
2022-10-01T22:24:10.187Z,100470.04
2022-10-01T22:26:45.300Z,100470.93
2022-10-01T22:29:27.654Z,100471.15
2022-10-01T22:32:01.397Z,100469.08
2022-10-01T22:34:35.750Z,100467.17
2022-10-01T22:37:11.711Z,100468.58
2022-10-01T22:39:50.528Z,100466.51
2022-10-01T22:42:30.474Z,100461.98
2022-10-01T22:45:07.090Z,100466.38
2022-10-01T22:48:00.385Z,100462.38
2022-10-01T22:50:40.233Z,100463.60
2022-10-01T22:53:33.460Z,100463.41
2022-10-01T22:56:01.388Z,100464.80
2022-10-01T22:58:41.231Z,100467.94
2022-10-01T23:01:21.033Z,100467.75
2022-10-01T23:03:53.318Z,100463.59
2022-10-01T23:06:28.346Z,100463.95
2022-10-01T23:09:23.968Z,100468.30
2022-10-01T23:12:01.050Z,100469.56
2022-10-01T23:14:47.450Z,100473.09
2022-10-01T23:17:20.843Z,100475.04
2022-10-01T23:20:21.938Z,100475.77
2022-10-01T23:23:01.437Z,100472.95
2022-10-01T23:25:38.059Z,100471.59
2022-10-01T23:28:40.786Z,100472.14
2022-10-01T23:31:30.160Z,100470.41
2022-10-01T23:33:58.149Z,100472.33
2022-10-01T23:36:46.883Z,100470.27
2022-10-01T23:39:52.321Z,100470.10
2022-10-01T23:42:33.191Z,100474.67
2022-10-01T23:45:16.518Z,100478.33
2022-10-01T23:48:03.643Z,100476.54
2022-10-01T23:50:50.356Z,100476.15
2022-10-01T23:53:28.451Z,100481.19
2022-10-01T23:56:23.575Z,100478.73
2022-10-01T23:59:01.251Z,100478.91
